Time;durP1;ratioP1;P1;durP2;ratioP2;P2;SDS_P1;SDS_P2;PMS_P1;PMS_P2;Temp;Humidity;BMP_temperature;BMP_pressure;BME280_temperature;BME280_humidity;BME280_pressure;Samples;Min_cycle;Max_cycle;Signal;HPM_P1;HPM_P2
2022/06/15 00:01:06;;;;;;;9.77;4.10;;;16.20;99.90;;;;;;4974885;28;20659;-78
2022/06/15 00:03:34;;;;;;;8.23;3.55;;;16.20;99.90;;;;;;4957851;28;20225;-78
2022/06/15 00:06:15;;;;;;;8.23;3.72;;;16.20;99.90;;;;;;4980608;28;20201;-78
2022/06/15 00:08:43;;;;;;;7.28;3.70;;;16.20;99.90;;;;;;4979866;28;20214;-78
2022/06/15 00:11:13;;;;;;;5.22;3.30;;;16.10;99.90;;;;;;4965121;28;20687;-78
2022/06/15 00:13:39;;;;;;;7.40;3.25;;;16.10;99.90;;;;;;4992371;28;20213;-76
2022/06/15 00:16:05;;;;;;;5.18;3.65;;;16.10;99.90;;;;;;4992930;28;20180;-76
2022/06/15 00:18:32;;;;;;;7.43;3.50;;;16.10;99.90;;;;;;4990971;28;20569;-76
2022/06/15 00:20:58;;;;;;;7.82;3.75;;;16.10;99.90;;;;;;4992025;28;20213;-76
2022/06/15 00:23:25;;;;;;;6.90;3.63;;;16.10;99.90;;;;;;4990204;28;20233;-76
2022/06/15 00:25:52;;;;;;;7.47;4.18;;;16.10;99.90;;;;;;4986934;28;20203;-76
2022/06/15 00:28:18;;;;;;;7.10;3.15;;;16.00;99.90;;;;;;4955416;28;20174;-76
2022/06/15 00:30:51;;;;;;;8.32;3.28;;;16.00;99.90;;;;;;4973054;28;20687;-77
2022/06/15 00:33:19;;;;;;;11.20;3.67;;;16.00;99.90;;;;;;4956227;28;20242;-75
2022/06/15 00:36:06;;;;;;;7.72;4.05;;;16.00;99.90;;;;;;4973109;28;20253;-76
2022/06/15 00:38:35;;;;;;;6.90;3.13;;;15.90;99.90;;;;;;4963920;28;20233;-76
2022/06/15 00:41:02;;;;;;;10.35;4.07;;;16.00;99.90;;;;;;4957459;28;20206;-77
2022/06/15 00:43:39;;;;;;;5.10;3.33;;;15.90;99.90;;;;;;4956763;28;20264;-77
2022/06/15 00:46:17;;;;;;;10.93;4.93;;;16.00;99.90;;;;;;4966605;28;20174;-77
2022/06/15 00:48:44;;;;;;;13.48;6.20;;;15.90;99.90;;;;;;4992658;28;20219;-77
2022/06/15 00:51:11;;;;;;;5.75;4.03;;;15.90;99.90;;;;;;4973769;28;20281;-77
2022/06/15 00:53:37;;;;;;;6.50;3.80;;;15.80;99.90;;;;;;4954263;28;20210;-77
2022/06/15 00:56:03;;;;;;;6.07;3.42;;;15.80;99.90;;;;;;4954538;28;20221;-76
2022/06/15 00:58:31;;;;;;;8.98;3.40;;;15.80;99.90;;;;;;5001335;28;20189;-77
2022/06/15 01:00:57;;;;;;;6.47;3.28;;;15.80;99.90;;;;;;4990754;28;20316;-77
2022/06/15 01:03:23;;;;;;;7.68;3.45;;;15.80;99.90;;;;;;4989559;28;20296;-77
2022/06/15 01:06:14;;;;;;;5.70;3.00;;;15.80;99.90;;;;;;4990220;28;20208;-77
2022/06/15 01:09:04;;;;;;;5.55;3.17;;;15.80;99.90;;;;;;4980132;28;20214;-77
2022/06/15 01:11:57;;;;;;;6.57;3.88;;;15.80;99.90;;;;;;4957958;28;20236;-77
2022/06/15 01:14:30;;;;;;;6.60;2.90;;;15.70;99.90;;;;;;4958320;28;20208;-77
2022/06/15 01:17:06;;;;;;;9.07;4.78;;;15.70;99.90;;;;;;4958314;28;20203;-77
2022/06/15 01:19:46;;;;;;;4.78;3.08;;;15.70;99.90;;;;;;4984563;28;20181;-77
2022/06/15 01:22:36;;;;;;;10.02;4.55;;;15.70;99.90;;;;;;4994934;28;20698;-77
2022/06/15 01:25:34;;;;;;;5.13;3.20;;;15.70;99.90;;;;;;4995389;28;20209;-77
2022/06/15 01:28:05;;;;;;;7.00;2.83;;;15.80;99.90;;;;;;4980462;28;20230;-77
2022/06/15 01:31:02;;;;;;;5.72;2.83;;;15.70;99.90;;;;;;4958076;28;20210;-77
2022/06/15 01:33:32;;;;;;;4.85;3.05;;;15.60;99.90;;;;;;4972134;28;20229;-77
2022/06/15 01:36:23;;;;;;;5.57;2.78;;;15.60;99.90;;;;;;4975412;28;20217;-77
2022/06/15 01:38:55;;;;;;;4.68;2.63;;;15.60;99.90;;;;;;4974481;28;20205;-78
2022/06/15 01:41:35;;;;;;;5.05;2.63;;;15.60;99.90;;;;;;4975081;28;20576;-77
2022/06/15 01:44:18;;;;;;;6.97;2.92;;;15.50;99.90;;;;;;4957824;28;20221;-77
2022/06/15 01:46:46;;;;;;;7.00;2.95;;;15.60;99.90;;;;;;4989444;28;20296;-77
2022/06/15 01:49:27;;;;;;;4.75;2.90;;;15.50;99.90;;;;;;4975462;28;20659;-77
2022/06/15 01:51:54;;;;;;;5.95;3.38;;;15.50;99.90;;;;;;4975269;28;20225;-77
2022/06/15 01:54:26;;;;;;;6.78;3.45;;;15.50;99.90;;;;;;4957433;28;20269;-77
2022/06/15 01:56:54;;;;;;;5.28;2.95;;;15.40;99.90;;;;;;4973958;28;20211;-77
2022/06/15 01:59:55;;;;;;;4.65;2.75;;;15.40;99.90;;;;;;4957246;28;20206;-78
2022/06/15 02:02:35;;;;;;;3.25;2.13;;;15.40;99.90;;;;;;4943123;28;20214;-77
2022/06/15 02:05:05;;;;;;;6.63;2.65;;;15.40;99.90;;;;;;4974990;28;20623;-77
2022/06/15 02:07:51;;;;;;;5.82;2.63;;;15.40;99.90;;;;;;4957622;28;20201;-77
2022/06/15 02:10:38;;;;;;;5.15;2.55;;;15.30;99.90;;;;;;4957074;28;20182;-78
2022/06/15 02:13:10;;;;;;;3.20;2.25;;;15.30;99.90;;;;;;4974071;28;20222;-77
2022/06/15 02:15:40;;;;;;;4.22;2.50;;;15.30;99.90;;;;;;4975044;28;20621;-78
2022/06/15 02:18:10;;;;;;;4.55;2.05;;;15.30;99.90;;;;;;4974496;28;20210;-78
2022/06/15 02:20:41;;;;;;;8.05;2.70;;;15.20;99.90;;;;;;4964661;28;20214;-79
2022/06/15 02:23:11;;;;;;;6.55;2.80;;;15.20;99.90;;;;;;4958167;28;20293;-78
2022/06/15 02:25:40;;;;;;;5.82;2.58;;;15.20;99.90;;;;;;4957204;28;20683;-77
2022/06/15 02:28:06;;;;;;;6.78;2.83;;;15.20;99.90;;;;;;4957407;28;20178;-77
2022/06/15 02:30:32;;;;;;;5.32;2.88;;;15.20;99.90;;;;;;4956944;28;20203;-77
2022/06/15 02:33:32;;;;;;;5.65;2.85;;;15.20;99.90;;;;;;4957434;28;20206;-77
2022/06/15 02:35:59;;;;;;;6.03;2.35;;;15.10;99.90;;;;;;4975640;28;20217;-80
2022/06/15 02:38:26;;;;;;;2.60;2.40;;;15.10;99.90;;;;;;4975058;28;20204;-78
2022/06/15 02:40:52;;;;;;;6.57;2.65;;;15.10;99.90;;;;;;4975490;28;20297;-79
2022/06/15 02:43:21;;;;;;;5.80;2.50;;;15.10;99.90;;;;;;4975584;28;20191;-78
2022/06/15 02:45:48;;;;;;;5.07;2.47;;;15.10;99.90;;;;;;4974814;28;20177;-79
2022/06/15 02:48:15;;;;;;;5.93;2.30;;;15.10;99.90;;;;;;4974818;28;20207;-79
2022/06/15 02:50:49;;;;;;;5.80;2.80;;;15.10;99.90;;;;;;4974725;28;20218;-79
2022/06/15 02:53:20;;;;;;;5.72;2.85;;;15.10;99.90;;;;;;4975139;28;20288;-78
2022/06/15 02:55:48;;;;;;;4.68;2.75;;;15.00;99.90;;;;;;4959509;28;21387;-78
2022/06/15 02:58:21;;;;;;;8.13;3.50;;;15.00;99.90;;;;;;4982766;28;20182;-79
2022/06/15 03:00:47;;;;;;;5.22;2.40;;;15.00;99.90;;;;;;4977475;28;20205;-79
2022/06/15 03:03:13;;;;;;;6.35;2.83;;;15.00;99.90;;;;;;4992674;28;20570;-79
2022/06/15 03:05:41;;;;;;;4.32;2.85;;;15.10;99.90;;;;;;4989964;28;20202;-79
2022/06/15 03:08:06;;;;;;;6.00;3.10;;;15.10;99.90;;;;;;4973752;28;20209;-79
2022/06/15 03:10:32;;;;;;;7.85;3.10;;;15.10;99.90;;;;;;4977287;28;20170;-78
2022/06/15 03:12:58;;;;;;;8.50;2.97;;;15.10;99.90;;;;;;4973962;28;20212;-79
2022/06/15 03:15:23;;;;;;;7.15;3.13;;;15.20;99.90;;;;;;4990166;28;20209;-78
2022/06/15 03:17:52;;;;;;;7.75;3.28;;;15.20;99.90;;;;;;4990597;28;20225;-77
2022/06/15 03:20:18;;;;;;;3.83;2.72;;;15.20;99.90;;;;;;4982947;28;20233;-78
2022/06/15 03:22:43;;;;;;;7.32;3.17;;;15.20;99.90;;;;;;4990557;28;20242;-77
2022/06/15 03:25:09;;;;;;;4.78;3.28;;;15.60;99.90;;;;;;4987198;28;20201;-78
2022/06/15 03:27:36;;;;;;;6.93;3.08;;;16.60;99.90;;;;;;4984725;28;20217;-78
2022/06/15 03:30:04;;;;;;;4.32;2.92;;;17.60;99.90;;;;;;4982661;28;20202;-77
2022/06/15 03:32:30;;;;;;;5.13;2.75;;;18.60;99.90;;;;;;4981348;28;20202;-77
2022/06/15 03:34:55;;;;;;;3.97;2.30;;;19.40;99.90;;;;;;4985813;28;20207;-77
2022/06/15 03:37:21;;;;;;;6.28;3.00;;;19.80;99.90;;;;;;4982904;28;20241;-78
2022/06/15 03:39:46;;;;;;;6.25;3.25;;;20.50;99.90;;;;;;4987415;28;20598;-78
2022/06/15 03:42:19;;;;;;;5.20;2.83;;;20.60;99.90;;;;;;4991146;28;20206;-78
2022/06/15 03:44:45;;;;;;;5.55;3.42;;;20.10;99.90;;;;;;4991870;28;20227;-78
2022/06/15 03:47:17;;;;;;;7.25;3.47;;;19.20;99.90;;;;;;4983781;28;20214;-77
2022/06/15 03:49:43;;;;;;;7.35;3.30;;;19.60;99.90;;;;;;4988965;28;20202;-77
2022/06/15 03:52:10;;;;;;;6.88;3.33;;;20.50;99.90;;;;;;4983429;28;20216;-77
2022/06/15 03:54:36;;;;;;;4.50;2.85;;;21.20;99.90;;;;;;4982072;28;20250;-78
2022/06/15 03:57:03;;;;;;;6.05;3.13;;;22.40;99.90;;;;;;4983567;28;20201;-78
2022/06/15 03:59:29;;;;;;;5.07;2.70;;;23.70;99.90;;;;;;4983458;28;20197;-77
2022/06/15 04:01:54;;;;;;;6.97;2.80;;;24.70;99.90;;;;;;4988452;28;20625;-78
2022/06/15 04:04:20;;;;;;;10.40;2.90;;;25.70;99.90;;;;;;4988925;28;20201;-78
2022/06/15 04:06:46;;;;;;;4.80;2.60;;;26.10;99.90;;;;;;4988536;28;20170;-78
2022/06/15 04:09:12;;;;;;;4.47;2.50;;;25.80;99.90;;;;;;4985203;28;20241;-79
2022/06/15 04:14:21;;;;;;;6.68;2.63;;;26.00;99.90;;;;;;4994840;28;20256;-79
2022/06/15 04:16:53;;;;;;;4.80;2.25;;;25.90;99.90;;;;;;4986294;28;20662;-78
2022/06/15 04:19:20;;;;;;;4.80;2.47;;;26.00;99.90;;;;;;4974505;28;20235;-78
2022/06/15 04:21:46;;;;;;;5.57;2.53;;;26.20;99.90;;;;;;4999134;28;20253;-79
2022/06/15 04:24:11;;;;;;;4.80;2.25;;;27.50;99.90;;;;;;4982811;28;20301;-79
2022/06/15 04:26:38;;;;;;;6.97;2.58;;;27.40;99.10;;;;;;4990528;28;20206;-78
2022/06/15 04:29:04;;;;;;;5.15;2.53;;;25.40;99.90;;;;;;4978551;28;20206;-78
2022/06/15 04:31:30;;;;;;;3.20;2.25;;;26.10;99.90;;;;;;4984818;28;20177;-78
2022/06/15 04:33:55;;;;;;;4.15;2.05;;;27.00;99.80;;;;;;4989808;28;20266;-79
2022/06/15 04:36:23;;;;;;;3.95;2.30;;;27.90;98.80;;;;;;4981215;28;20236;-78
2022/06/15 04:38:49;;;;;;;5.25;2.40;;;28.70;97.20;;;;;;4984455;28;20768;-76
2022/06/15 04:41:14;;;;;;;4.95;2.17;;;29.10;95.50;;;;;;4990295;28;20209;-77
2022/06/15 04:43:40;;;;;;;5.15;2.10;;;27.90;95.30;;;;;;4990775;28;20230;-77
2022/06/15 04:46:06;;;;;;;6.30;2.40;;;27.80;96.30;;;;;;4991388;28;20192;-77
2022/06/15 04:48:31;;;;;;;3.83;2.00;;;27.20;95.80;;;;;;4984143;28;20218;-78
2022/06/15 04:50:57;;;;;;;5.45;2.05;;;28.20;96.30;;;;;;4986512;28;20209;-78
2022/06/15 04:53:22;;;;;;;4.80;2.00;;;29.10;94.70;;;;;;4986644;28;20209;-77
2022/06/15 04:55:48;;;;;;;5.80;2.40;;;29.30;93.50;;;;;;4987565;28;20212;-78
2022/06/15 04:58:14;;;;;;;5.47;2.33;;;29.90;92.90;;;;;;4982738;28;20197;-77
2022/06/15 05:00:41;;;;;;;4.82;2.70;;;30.40;91.70;;;;;;4994337;28;20209;-78
2022/06/15 05:03:07;;;;;;;5.57;2.63;;;31.20;90.70;;;;;;4991118;28;20291;-78
2022/06/15 05:05:33;;;;;;;8.07;3.92;;;30.30;89.40;;;;;;4987082;28;20694;-78
2022/06/15 05:07:59;;;;;;;4.85;2.72;;;29.20;88.80;;;;;;4995080;28;20687;-78
2022/06/15 05:10:26;;;;;;;6.63;2.53;;;26.90;91.90;;;;;;4983925;28;20184;-77
2022/06/15 05:12:53;;;;;;;5.80;3.17;;;26.80;93.50;;;;;;4960471;28;20202;-78
2022/06/15 05:15:18;;;;;;;7.07;2.58;;;27.30;93.00;;;;;;4971552;28;20221;-78
2022/06/15 05:17:46;;;;;;;6.13;2.72;;;28.30;92.90;;;;;;4994391;28;20281;-78
2022/06/15 05:20:14;;;;;;;5.70;2.65;;;29.20;91.90;;;;;;4987039;28;20293;-78
2022/06/15 05:22:40;;;;;;;5.75;2.67;;;30.30;90.20;;;;;;4966591;23;20246;-73
2022/06/15 05:25:07;;;;;;;5.03;2.67;;;30.30;90.40;;;;;;5032908;28;20216;-71
2022/06/15 05:27:34;;;;;;;4.65;2.90;;;30.30;88.00;;;;;;5033355;28;20215;-73
2022/06/15 05:29:59;;;;;;;5.75;2.55;;;27.90;90.30;;;;;;5032356;28;20212;-73
2022/06/15 05:32:25;;;;;;;7.03;3.85;;;27.20;91.70;;;;;;5033442;28;20681;-73
2022/06/15 05:34:53;;;;;;;5.05;2.88;;;26.40;92.30;;;;;;5031894;28;20203;-77
2022/06/15 05:37:19;;;;;;;9.48;3.40;;;25.70;93.70;;;;;;5032036;28;20676;-73
2022/06/15 05:39:44;;;;;;;6.35;3.40;;;26.00;94.10;;;;;;5032068;28;20173;-73
2022/06/15 05:42:10;;;;;;;4.88;2.88;;;26.40;93.60;;;;;;5031992;28;20196;-73
2022/06/15 05:47:01;;;;;;;3.88;2.55;;;26.10;93.10;;;;;;5033425;28;20249;-73
2022/06/15 05:49:28;;;;;;;7.30;2.80;;;25.00;94.30;;;;;;5032775;28;20189;-73
2022/06/15 05:51:53;;;;;;;3.83;2.40;;;24.90;94.60;;;;;;5032031;28;20191;-73
2022/06/15 05:54:19;;;;;;;4.13;2.10;;;24.50;94.40;;;;;;5030493;28;20566;-74
2022/06/15 05:56:45;;;;;;;4.40;2.22;;;24.80;95.40;;;;;;5032136;28;20279;-74
2022/06/15 05:59:11;;;;;;;5.15;2.60;;;26.60;92.90;;;;;;5031420;28;20200;-73
2022/06/15 06:01:38;;;;;;;6.88;2.50;;;27.60;91.60;;;;;;5031263;28;20215;-73
2022/06/15 06:04:05;;;;;;;5.22;2.22;;;27.10;91.70;;;;;;5033332;28;20234;-74
2022/06/15 06:06:32;;;;;;;4.07;2.30;;;28.40;91.10;;;;;;5031376;28;20201;-74
2022/06/15 06:08:58;;;;;;;5.65;2.33;;;28.60;90.40;;;;;;5031055;28;20205;-75
2022/06/15 06:11:24;;;;;;;6.25;2.28;;;29.10;89.90;;;;;;5031418;28;20201;-74
2022/06/15 06:13:51;;;;;;;3.80;2.88;;;30.10;86.80;;;;;;5031290;28;20212;-74
2022/06/15 06:16:18;;;;;;;4.60;2.05;;;29.90;86.10;;;;;;5031583;28;20271;-74
2022/06/15 06:18:43;;;;;;;4.38;2.20;;;30.20;83.60;;;;;;5031393;28;20169;-74
2022/06/15 06:21:09;;;;;;;5.18;2.30;;;29.80;83.90;;;;;;5032969;28;20637;-74
2022/06/15 06:23:36;;;;;;;10.35;1.95;;;30.10;84.50;;;;;;5031280;28;20218;-74
2022/06/15 06:26:03;;;;;;;4.18;1.80;;;29.60;83.20;;;;;;5031134;28;20684;-73
2022/06/15 06:28:38;;;;;;;12.18;2.97;;;30.30;82.50;;;;;;5032086;28;20191;-74
2022/06/15 06:31:06;;;;;;;12.35;3.83;;;29.30;81.30;;;;;;5031233;28;20190;-74
2022/06/15 06:33:34;;;;;;;6.43;1.65;;;29.60;83.80;;;;;;5030967;28;20390;-74
2022/06/15 06:36:03;;;;;;;5.95;2.33;;;30.50;81.20;;;;;;5030782;28;20254;-71
2022/06/15 06:38:28;;;;;;;4.20;1.65;;;29.80;81.10;;;;;;5031782;28;20672;-71
2022/06/15 06:40:56;;;;;;;4.60;1.73;;;30.50;79.60;;;;;;5030894;28;20210;-71
2022/06/15 06:43:22;;;;;;;3.97;1.80;;;29.60;79.50;;;;;;5030510;28;20188;-71
2022/06/15 06:45:48;;;;;;;4.50;1.30;;;28.80;79.10;;;;;;5031184;28;20247;-71
2022/06/15 06:48:14;;;;;;;2.45;1.35;;;27.40;82.90;;;;;;5031551;28;20673;-71
2022/06/15 06:50:41;;;;;;;2.83;1.42;;;27.30;84.70;;;;;;5030204;28;20216;-71
2022/06/15 06:53:08;;;;;;;5.68;1.98;;;26.30;84.30;;;;;;5030024;28;20697;-72
2022/06/15 06:55:34;;;;;;;4.97;1.83;;;24.90;89.10;;;;;;5031876;28;20342;-70
2022/06/15 06:58:00;;;;;;;3.85;1.45;;;25.00;90.30;;;;;;5032051;28;20248;-70
2022/06/15 07:00:28;;;;;;;2.55;1.30;;;24.80;90.40;;;;;;5029781;28;20309;-70
2022/06/15 07:02:54;;;;;;;2.63;1.30;;;24.70;89.60;;;;;;5030420;28;20211;-71
2022/06/15 07:05:20;;;;;;;2.90;1.40;;;24.70;90.30;;;;;;5029958;28;20220;-72
2022/06/15 07:07:46;;;;;;;2.35;1.55;;;25.60;90.00;;;;;;5031338;28;20258;-74
2022/06/15 07:10:14;;;;;;;4.55;3.25;;;26.00;89.40;;;;;;5030554;28;20674;-70
2022/06/15 07:12:42;;;;;;;4.85;3.08;;;26.50;87.40;;;;;;5030399;28;20303;-71
2022/06/15 07:15:09;;;;;;;4.78;2.08;;;26.00;87.40;;;;;;5031553;28;20201;-70
2022/06/15 07:17:34;;;;;;;4.55;1.48;;;26.30;88.20;;;;;;5031288;28;20216;-71
2022/06/15 07:20:00;;;;;;;6.72;1.73;;;26.40;89.30;;;;;;5030909;28;20271;-72
2022/06/15 07:22:26;;;;;;;4.85;1.65;;;26.20;88.30;;;;;;5031446;28;20201;-71
2022/06/15 07:24:51;;;;;;;3.67;1.30;;;25.50;88.90;;;;;;5031914;28;20203;-70
2022/06/15 07:27:17;;;;;;;3.97;1.42;;;24.50;90.50;;;;;;5029649;28;20208;-70
2022/06/15 07:29:46;;;;;;;4.68;1.67;;;24.90;91.30;;;;;;5029524;28;20957;-70
2022/06/15 07:32:13;;;;;;;4.22;2.33;;;23.80;91.30;;;;;;5029698;28;20200;-70
2022/06/15 07:34:38;;;;;;;5.85;2.20;;;23.20;92.60;;;;;;5029377;28;20563;-70
2022/06/15 07:37:04;;;;;;;3.17;1.33;;;24.10;92.70;;;;;;5030073;28;20263;-71
2022/06/15 07:39:29;;;;;;;5.03;2.33;;;25.40;91.70;;;;;;5030862;28;20677;-72
2022/06/15 07:41:57;;;;;;;4.47;1.77;;;25.90;90.10;;;;;;5031526;28;20295;-71
2022/06/15 07:44:24;;;;;;;5.85;1.58;;;27.30;88.10;;;;;;5029416;28;20212;-71
2022/06/15 07:49:54;;;;;;;5.47;3.15;;;26.30;88.00;;;;;;5028627;28;20199;-74
2022/06/15 07:49:55;;;;;;;4.18;1.35;;;26.50;89.30;;;;;;5020870;28;20251;-72
2022/06/15 07:52:23;;;;;;;8.85;3.10;;;27.20;86.30;;;;;;5028982;28;20176;-72
2022/06/15 07:54:49;;;;;;;5.72;2.28;;;27.90;87.10;;;;;;5029628;28;20222;-71
2022/06/15 07:57:15;;;;;;;5.07;1.60;;;29.70;84.50;;;;;;5030581;28;20665;-73
2022/06/15 07:59:41;;;;;;;4.82;1.38;;;30.40;79.60;;;;;;5028744;28;20227;-73
2022/06/15 08:02:07;;;;;;;2.88;1.60;;;29.60;80.00;;;;;;5030602;28;20212;-73
2022/06/15 08:04:33;;;;;;;11.77;7.50;;;30.00;79.50;;;;;;5028515;28;20199;-75
2022/06/15 08:06:59;;;;;;;4.82;1.55;;;30.10;79.20;;;;;;5029470;28;20209;-74
2022/06/15 08:09:24;;;;;;;2.33;1.40;;;30.30;78.00;;;;;;5028642;28;20535;-73
2022/06/15 08:14:36;;;;;;;4.53;1.90;;;31.00;75.50;;;;;;5030616;28;20576;-71
2022/06/15 08:17:04;;;;;;;3.88;2.60;;;30.90;77.20;;;;;;5028051;28;20357;-72
2022/06/15 08:19:34;;;;;;;4.88;1.75;;;32.20;76.20;;;;;;5029466;28;20250;-72
2022/06/15 08:21:59;;;;;;;3.90;2.75;;;32.90;73.70;;;;;;5030792;28;20183;-74
2022/06/15 08:24:25;;;;;;;2.70;1.77;;;32.10;71.50;;;;;;5029810;28;20557;-71
2022/06/15 08:26:51;;;;;;;5.15;1.67;;;31.60;73.10;;;;;;5028616;28;20227;-71
2022/06/15 08:29:17;;;;;;;4.15;1.83;;;31.50;72.80;;;;;;5029759;28;20206;-73
2022/06/15 08:31:43;;;;;;;4.85;1.90;;;31.30;73.60;;;;;;5028615;28;20200;-72
2022/06/15 08:34:08;;;;;;;4.70;1.67;;;30.80;73.10;;;;;;5030398;28;20257;-71
2022/06/15 08:36:35;;;;;;;5.28;1.50;;;30.70;74.80;;;;;;5029173;28;20207;-73
2022/06/15 08:39:01;;;;;;;3.38;1.65;;;31.40;73.30;;;;;;5029509;28;20210;-70
2022/06/15 08:41:36;;;;;;;2.80;1.50;;;32.10;73.50;;;;;;5028288;28;20565;-70
2022/06/15 08:44:12;;;;;;;2.85;1.23;;;32.60;72.60;;;;;;5023718;28;20211;-73
2022/06/15 08:47:02;;;;;;;3.50;1.52;;;32.30;71.40;;;;;;5030212;28;20707;-71
2022/06/15 08:49:55;;;;;;;3.35;1.35;;;31.20;72.50;;;;;;5029679;28;20180;-71
2022/06/15 08:52:33;;;;;;;4.45;1.83;;;29.40;73.90;;;;;;5029588;28;20200;-72
2022/06/15 08:55:07;;;;;;;7.65;2.47;;;29.80;74.70;;;;;;5016137;28;20207;-71
2022/06/15 08:58:05;;;;;;;8.30;3.45;;;30.50;75.00;;;;;;5028485;28;20212;-72
2022/06/15 09:00:37;;;;;;;6.20;2.10;;;30.80;74.50;;;;;;5029457;28;20201;-71
2022/06/15 09:03:05;;;;;;;5.10;1.88;;;31.30;72.90;;;;;;5029565;28;20677;-71
2022/06/15 09:05:53;;;;;;;5.53;1.65;;;31.80;71.70;;;;;;5028140;28;20627;-72
2022/06/15 09:08:56;;;;;;;6.30;4.63;;;31.90;71.50;;;;;;5028310;28;20204;-71
2022/06/15 09:11:31;;;;;;;4.22;2.13;;;31.80;71.30;;;;;;4997879;28;20212;-71
2022/06/15 09:14:06;;;;;;;4.90;1.90;;;31.30;71.60;;;;;;5029819;28;20291;-72
2022/06/15 09:16:58;;;;;;;3.90;1.73;;;30.80;72.40;;;;;;5029556;28;20176;-71
2022/06/15 09:19:29;;;;;;;5.22;1.83;;;29.90;73.30;;;;;;5024070;28;20187;-71
2022/06/15 09:22:04;;;;;;;8.00;2.53;;;29.40;74.70;;;;;;5028692;28;20169;-71
2022/06/15 09:24:48;;;;;;;5.93;1.92;;;29.80;75.70;;;;;;5029310;28;20688;-71
2022/06/15 09:27:52;;;;;;;7.07;2.00;;;30.10;75.10;;;;;;5028297;28;20254;-70
2022/06/15 09:30:27;;;;;;;6.75;2.90;;;29.10;75.60;;;;;;4991255;28;20208;-71
2022/06/15 09:32:58;;;;;;;9.05;4.93;;;29.30;76.20;;;;;;5033702;28;20210;-71
2022/06/15 09:35:48;;;;;;;6.88;2.67;;;29.90;76.30;;;;;;5031976;28;20196;-71
2022/06/15 09:38:14;;;;;;;7.15;1.58;;;30.10;75.50;;;;;;5031439;28;20234;-73
2022/06/15 09:40:50;;;;;;;9.02;4.80;;;30.60;74.70;;;;;;5032629;28;20209;-72
2022/06/15 09:43:34;;;;;;;7.03;1.80;;;30.30;75.60;;;;;;5031453;28;20200;-74
2022/06/15 09:46:20;;;;;;;5.32;2.22;;;30.00;75.00;;;;;;5031707;28;20208;-73
2022/06/15 09:49:03;;;;;;;7.20;1.60;;;28.60;76.30;;;;;;5033459;28;20645;-72
2022/06/15 09:51:43;;;;;;;6.05;2.25;;;28.90;76.80;;;;;;5032303;28;20219;-72
2022/06/15 09:54:32;;;;;;;6.70;2.63;;;29.30;78.20;;;;;;5029633;28;20222;-73
2022/06/15 09:56:57;;;;;;;5.45;2.20;;;29.80;76.40;;;;;;5017306;28;20211;-72
2022/06/15 09:59:25;;;;;;;4.80;1.80;;;28.60;76.60;;;;;;5033002;28;20212;-73
2022/06/15 10:01:51;;;;;;;4.97;2.28;;;28.10;77.60;;;;;;5030431;28;20247;-73
2022/06/15 10:04:24;;;;;;;6.57;2.00;;;27.00;79.50;;;;;;5031860;28;20286;-73
2022/06/15 10:07:04;;;;;;;4.07;2.45;;;26.70;79.70;;;;;;5032091;28;20242;-73
2022/06/15 10:09:33;;;;;;;3.10;1.98;;;26.70;81.20;;;;;;5031385;28;20204;-73
2022/06/15 10:15:02;;;;;;;8.75;4.45;;;26.10;83.10;;;;;;5032263;28;20207;-72
2022/06/15 10:17:35;;;;;;;4.03;2.13;;;26.80;83.20;;;;;;5031026;28;20208;-73
2022/06/15 10:20:00;;;;;;;7.82;4.03;;;26.50;82.70;;;;;;5032303;28;20204;-73
2022/06/15 10:22:40;;;;;;;4.07;2.33;;;27.00;82.00;;;;;;5032367;28;20172;-73
2022/06/15 10:25:06;;;;;;;4.63;2.22;;;26.90;82.20;;;;;;5033081;28;20295;-72
2022/06/15 10:27:38;;;;;;;7.00;2.10;;;26.70;82.60;;;;;;5032053;28;20270;-72
2022/06/15 10:30:06;;;;;;;7.32;2.03;;;26.50;83.00;;;;;;5034557;28;20231;-72
2022/06/15 10:32:32;;;;;;;6.90;2.55;;;26.90;82.90;;;;;;5032460;28;20204;-71
2022/06/15 10:35:14;;;;;;;6.68;2.85;;;27.50;83.30;;;;;;5032114;28;20252;-72
2022/06/15 10:37:56;;;;;;;6.38;2.50;;;27.80;83.40;;;;;;5030641;28;20550;-73
2022/06/15 10:40:24;;;;;;;3.50;2.08;;;28.30;81.60;;;;;;5031658;28;20235;-73
2022/06/15 10:43:00;;;;;;;5.05;2.60;;;28.10;79.60;;;;;;5031081;28;20189;-72
2022/06/15 10:45:32;;;;;;;4.95;2.22;;;27.80;80.80;;;;;;5031826;28;20210;-73
2022/06/15 10:48:02;;;;;;;10.15;6.43;;;27.20;80.70;;;;;;5030491;28;20644;-72
2022/06/15 10:50:51;;;;;;;18.02;4.63;;;27.50;84.60;;;;;;5032010;28;20200;-73
2022/06/15 10:53:39;;;;;;;17.52;6.97;;;27.80;88.80;;;;;;5038179;28;20250;-73
2022/06/15 11:02:10;;;;;;;10.57;5.07;;;28.20;85.70;;;;;;5032236;28;20207;-74
2022/06/15 11:04:45;;;;;;;7.32;3.20;;;28.30;89.40;;;;;;5028707;28;20228;-75
2022/06/15 11:07:21;;;;;;;5.28;2.08;;;28.40;89.70;;;;;;5032390;28;20629;-73
2022/06/15 11:09:56;;;;;;;8.15;3.25;;;28.00;82.30;;;;;;5031969;28;20253;-72
2022/06/15 11:12:47;;;;;;;5.53;3.30;;;28.00;85.70;;;;;;5031281;28;20316;-73
2022/06/15 11:15:13;;;;;;;5.20;2.78;;;28.20;90.10;;;;;;5030210;28;20196;-71
2022/06/15 11:18:02;;;;;;;7.82;2.70;;;28.20;86.60;;;;;;5031470;28;20740;-73
2022/06/15 11:20:33;;;;;;;6.20;2.20;;;27.30;83.20;;;;;;5030026;28;20299;-73
2022/06/15 11:23:23;;;;;;;5.32;1.90;;;26.90;84.00;;;;;;5031247;28;20216;-72
2022/06/15 11:25:58;;;;;;;4.10;2.25;;;26.30;85.00;;;;;;5013836;23;20218;-74
2022/06/15 11:28:31;;;;;;;5.20;2.53;;;25.90;85.40;;;;;;4974102;28;20181;-76
2022/06/15 11:31:14;;;;;;;6.72;2.65;;;25.70;86.00;;;;;;4997477;28;20212;-78
2022/06/15 11:33:48;;;;;;;7.25;3.38;;;25.50;86.70;;;;;;4976482;28;20742;-78
2022/06/15 11:36:28;;;;;;;8.82;3.28;;;25.80;87.20;;;;;;4973501;28;20614;-80
2022/06/15 11:39:09;;;;;;;4.57;2.17;;;26.30;85.60;;;;;;4973061;28;20206;-78
2022/06/15 11:41:46;;;;;;;5.45;3.75;;;25.70;85.60;;;;;;4970839;28;20210;-78
2022/06/15 11:44:27;;;;;;;5.05;2.70;;;25.20;86.60;;;;;;4991673;28;20690;-78
2022/06/15 11:47:20;;;;;;;6.03;2.60;;;25.50;87.80;;;;;;4991398;28;20201;-78
2022/06/15 11:50:00;;;;;;;5.40;2.40;;;26.40;87.40;;;;;;4992361;28;20201;-78
2022/06/15 11:52:55;;;;;;;6.20;2.65;;;26.50;86.70;;;;;;4991363;28;20169;-78
2022/06/15 11:55:39;;;;;;;7.53;3.22;;;26.90;85.80;;;;;;4990888;28;20209;-78
2022/06/15 11:58:25;;;;;;;3.90;2.60;;;27.10;85.40;;;;;;4985827;28;20236;-78
2022/06/15 12:01:28;;;;;;;5.13;3.03;;;27.00;85.00;;;;;;4972221;28;20217;-77
2022/06/15 12:04:31;;;;;;;4.72;2.50;;;27.00;86.00;;;;;;4932004;28;20233;-78
2022/06/15 12:07:06;;;;;;;6.65;3.30;;;26.70;86.10;;;;;;4964228;28;20259;-77
2022/06/15 12:09:43;;;;;;;7.68;3.55;;;26.80;85.80;;;;;;4991045;28;20204;-78
2022/06/15 12:12:38;;;;;;;6.53;3.67;;;27.00;86.00;;;;;;4989683;28;20229;-77
2022/06/15 12:15:25;;;;;;;8.73;4.07;;;26.60;85.40;;;;;;5004392;28;20293;-77
2022/06/15 12:18:17;;;;;;;5.63;2.20;;;26.70;86.90;;;;;;4996665;28;20214;-77
2022/06/15 12:21:01;;;;;;;6.30;2.45;;;26.70;87.30;;;;;;4971382;28;20206;-78
2022/06/15 12:23:32;;;;;;;5.80;2.65;;;26.40;85.70;;;;;;4973363;28;20695;-77
2022/06/15 12:26:13;;;;;;;8.20;3.63;;;26.20;86.70;;;;;;4990828;28;20221;-77
2022/06/15 12:29:01;;;;;;;5.43;2.17;;;25.70;85.90;;;;;;4990835;28;20205;-77
2022/06/15 12:31:42;;;;;;;6.10;2.63;;;25.70;86.50;;;;;;4990566;28;20170;-77
2022/06/15 12:34:21;;;;;;;7.78;2.70;;;25.90;86.80;;;;;;4991510;28;20670;-78
2022/06/15 12:37:14;;;;;;;7.00;3.70;;;25.60;86.40;;;;;;5024119;28;20233;-77
2022/06/15 12:40:01;;;;;;;10.57;3.50;;;25.60;86.80;;;;;;4978833;28;20213;-77
2022/06/15 12:42:28;;;;;;;3.65;2.53;;;25.00;87.70;;;;;;4970979;28;20770;-78
2022/06/15 12:45:26;;;;;;;6.38;3.05;;;24.90;88.80;;;;;;4954925;28;20217;-79
2022/06/15 12:47:56;;;;;;;6.90;2.58;;;24.80;88.80;;;;;;4962457;28;20229;-78
2022/06/15 12:50:24;;;;;;;5.32;2.63;;;25.00;89.70;;;;;;4970786;28;20301;-77
2022/06/15 12:53:25;;;;;;;4.68;2.58;;;25.10;88.70;;;;;;4990375;28;20205;-78
2022/06/15 12:56:15;;;;;;;5.85;2.13;;;24.90;89.80;;;;;;4964091;28;20304;-79
2022/06/15 12:59:08;;;;;;;4.95;1.90;;;25.10;89.40;;;;;;4962940;28;20264;-77
2022/06/15 13:01:46;;;;;;;3.67;1.95;;;25.30;89.00;;;;;;4979622;28;20217;-78
2022/06/15 13:04:31;;;;;;;3.85;2.22;;;25.50;89.00;;;;;;4974844;28;20233;-78
2022/06/15 13:07:31;;;;;;;10.80;3.88;;;25.80;89.10;;;;;;5008470;28;20613;-79
2022/06/15 13:10:17;;;;;;;4.85;2.70;;;25.90;88.60;;;;;;4976076;28;20535;-79
2022/06/15 13:12:51;;;;;;;6.80;3.15;;;26.00;87.40;;;;;;4974910;28;20198;-78
2022/06/15 13:15:28;;;;;;;5.18;2.33;;;25.90;88.30;;;;;;4976785;28;20218;-78
2022/06/15 13:18:09;;;;;;;6.20;2.00;;;26.00;88.30;;;;;;4975953;28;20202;-79
2022/06/15 13:20:57;;;;;;;4.50;2.50;;;25.90;87.70;;;;;;4975109;28;20202;-80
2022/06/15 13:23:23;;;;;;;7.57;4.40;;;25.70;88.90;;;;;;4960488;28;20218;-78
2022/06/15 13:25:52;;;;;;;3.20;1.98;;;25.80;87.70;;;;;;4976208;28;20214;-78
2022/06/15 13:28:22;;;;;;;5.38;2.17;;;25.80;87.30;;;;;;4976815;28;20702;-78
2022/06/15 13:30:48;;;;;;;4.47;2.00;;;25.50;86.70;;;;;;4960276;28;20178;-78